createdAt,value
2023-05-05T00:00:23.940Z,154.86
2023-05-05T00:01:23.956Z,157.33
2023-05-05T00:02:24.038Z,151.44
2023-05-05T00:03:24.102Z,156.41
2023-05-05T00:04:24.098Z,158.65
2023-05-05T00:05:24.105Z,151.58
2023-05-05T00:06:24.104Z,148.27
2023-05-05T00:07:24.138Z,135.26
2023-05-05T00:08:24.184Z,138.28
2023-05-05T00:09:24.205Z,141.02
2023-05-05T00:10:24.201Z,141.27
2023-05-05T00:11:24.202Z,142.56
2023-05-05T00:12:24.201Z,146.28
2023-05-05T00:13:24.194Z,150.08
2023-05-05T00:14:24.189Z,155.38
2023-05-05T00:15:24.195Z,149.10
2023-05-05T00:16:24.230Z,149.63
2023-05-05T00:17:24.232Z,153.61
2023-05-05T00:18:24.186Z,158.21
2023-05-05T00:19:24.183Z,160.32
2023-05-05T00:20:24.173Z,154.34
2023-05-05T00:21:24.193Z,154.59
2023-05-05T00:22:24.172Z,150.79
2023-05-05T00:23:24.179Z,157.29
2023-05-05T00:24:24.160Z,162.67
2023-05-05T00:25:24.189Z,158.21
2023-05-05T00:26:24.227Z,160.37
2023-05-05T00:27:24.271Z,157.78
2023-05-05T00:28:24.321Z,156.08
2023-05-05T00:29:24.371Z,149.08
2023-05-05T00:30:24.405Z,151.56
2023-05-05T00:31:24.491Z,149.87
2023-05-05T00:32:24.503Z,159.84
2023-05-05T00:33:24.544Z,160.42
2023-05-05T00:34:24.590Z,161.30
2023-05-05T00:35:24.639Z,152.52
2023-05-05T00:36:24.693Z,148.21
2023-05-05T00:37:24.741Z,139.75
2023-05-05T00:38:24.776Z,138.08
2023-05-05T00:39:24.833Z,133.55
2023-05-05T00:40:24.883Z,137.94
2023-05-05T00:41:24.925Z,135.43
2023-05-05T00:42:24.991Z,133.21
2023-05-05T00:43:25.028Z,132.59
2023-05-05T00:44:25.072Z,134.84
2023-05-05T00:45:25.133Z,131.86
2023-05-05T00:46:25.211Z,135.28
2023-05-05T00:47:25.261Z,133.86
2023-05-05T00:48:25.316Z,130.09
2023-05-05T00:49:25.358Z,134.07
2023-05-05T00:50:25.391Z,133.21
2023-05-05T00:51:25.458Z,131.48
2023-05-05T00:52:25.519Z,136.84
2023-05-05T00:53:25.561Z,136.82
2023-05-05T00:54:25.621Z,137.06
2023-05-05T00:55:25.672Z,132.61
2023-05-05T00:56:25.722Z,130.74
2023-05-05T00:57:25.786Z,137.23
2023-05-05T00:58:25.820Z,140.84
2023-05-05T00:59:25.887Z,139.08
2023-05-05T01:00:25.948Z,133.01
2023-05-05T01:01:26.016Z,130.10
2023-05-05T01:02:26.182Z,137.02
2023-05-05T01:03:26.190Z,134.30
2023-05-05T01:04:26.166Z,129.69
2023-05-05T01:05:26.209Z,126.60
2023-05-05T01:06:26.274Z,120.38
2023-05-05T01:07:26.269Z,120.43
2023-05-05T01:08:26.273Z,120.74
2023-05-05T01:09:26.270Z,120.87
2023-05-05T01:10:26.560Z,120.53
2023-05-05T01:11:26.281Z,120.73
2023-05-05T01:12:26.274Z,121.55
2023-05-05T01:13:26.260Z,122.77
2023-05-05T01:14:26.253Z,123.89
2023-05-05T01:15:26.247Z,119.54
2023-05-05T01:16:26.261Z,117.17
2023-05-05T01:17:26.266Z,121.51
2023-05-05T01:18:26.249Z,113.66
2023-05-05T01:19:26.244Z,114.27
2023-05-05T01:20:26.233Z,119.08
2023-05-05T01:21:26.286Z,116.28
2023-05-05T01:22:26.356Z,121.73
2023-05-05T01:23:26.403Z,118.84
2023-05-05T01:24:26.463Z,113.79
2023-05-05T01:25:26.508Z,108.05
2023-05-05T01:26:26.505Z,108.11
2023-05-05T01:27:26.507Z,108.54
2023-05-05T01:28:26.510Z,109.03
2023-05-05T01:29:26.503Z,108.72
2023-05-05T01:30:26.504Z,105.04
2023-05-05T01:31:26.514Z,105.13
2023-05-05T01:32:26.506Z,105.35
2023-05-05T01:33:26.500Z,107.81
2023-05-05T01:34:26.496Z,113.30
2023-05-05T01:35:26.491Z,114.97
2023-05-05T01:36:26.505Z,106.57
2023-05-05T01:37:26.571Z,110.69
2023-05-05T01:38:26.654Z,104.30
2023-05-05T01:39:26.698Z,99.07
2023-05-05T01:40:26.750Z,101.07
2023-05-05T01:41:26.829Z,99.65
2023-05-05T01:42:26.893Z,96.75
2023-05-05T01:43:26.957Z,92.92
2023-05-05T01:44:27.015Z,90.88
2023-05-05T01:45:27.070Z,86.55
2023-05-05T01:46:27.120Z,90.99
2023-05-05T01:47:27.216Z,89.69
2023-05-05T01:48:27.262Z,96.54
2023-05-05T01:49:27.365Z,88.96
2023-05-05T01:50:27.421Z,84.96
2023-05-05T01:51:27.457Z,83.95
2023-05-05T01:52:27.509Z,84.27
2023-05-05T01:53:27.566Z,81.58
2023-05-05T01:54:27.767Z,83.67
2023-05-05T01:55:27.730Z,84.42
2023-05-05T01:56:27.751Z,84.09
2023-05-05T01:57:27.823Z,81.61
2023-05-05T01:58:27.877Z,82.08
2023-05-05T01:59:27.929Z,84.14
2023-05-05T02:00:27.999Z,85.11
2023-05-05T02:01:28.111Z,81.59
2023-05-05T02:02:28.198Z,82.12
2023-05-05T02:03:28.221Z,77.42
2023-05-05T02:04:28.236Z,78.59
2023-05-05T02:05:28.305Z,77.34
2023-05-05T02:06:28.381Z,74.44
2023-05-05T02:07:28.452Z,73.49
2023-05-05T02:08:28.508Z,70.54
2023-05-05T02:09:28.578Z,77.15
2023-05-05T02:10:28.647Z,77.33
2023-05-05T02:11:28.696Z,82.49
2023-05-05T02:12:28.762Z,82.20
2023-05-05T02:13:28.843Z,79.98
2023-05-05T02:14:28.908Z,80.31
2023-05-05T02:15:29.017Z,75.48
2023-05-05T02:16:29.046Z,71.91
2023-05-05T02:17:29.082Z,72.04
2023-05-05T02:18:29.045Z,71.65
2023-05-05T02:19:29.026Z,69.91
2023-05-05T02:20:29.032Z,67.51
2023-05-05T02:21:29.021Z,67.85
2023-05-05T02:22:29.015Z,69.94
2023-05-05T02:23:29.023Z,68.37
2023-05-05T02:24:29.015Z,62.64
2023-05-05T02:25:29.013Z,58.59
2023-05-05T02:26:29.020Z,54.14
2023-05-05T02:27:29.103Z,53.13
2023-05-05T02:28:29.127Z,50.46
2023-05-05T02:29:29.179Z,48.68
2023-05-05T02:30:29.243Z,47.50
2023-05-05T02:31:29.338Z,46.86
2023-05-05T02:32:29.436Z,45.88
2023-05-05T02:33:29.416Z,46.44
2023-05-05T02:34:29.413Z,45.81
2023-05-05T02:35:29.419Z,43.96
2023-05-05T02:36:29.423Z,42.16
2023-05-05T02:37:29.425Z,41.10
2023-05-05T02:38:29.416Z,39.29
2023-05-05T02:39:29.417Z,38.81
2023-05-05T02:40:29.418Z,39.20
2023-05-05T02:41:29.404Z,40.15
2023-05-05T02:42:29.425Z,38.65
2023-05-05T02:43:29.459Z,37.45
2023-05-05T02:44:29.506Z,35.58
2023-05-05T02:45:29.549Z,33.82
2023-05-05T02:46:29.613Z,31.28
2023-05-05T02:47:29.625Z,28.00
2023-05-05T02:48:29.645Z,26.78
2023-05-05T02:49:29.613Z,25.63
2023-05-05T02:50:29.614Z,24.93
2023-05-05T02:51:29.647Z,24.61
2023-05-05T02:52:29.685Z,24.15
2023-05-05T02:53:29.679Z,23.59
2023-05-05T02:54:29.687Z,24.16
2023-05-05T02:55:29.734Z,23.99
2023-05-05T02:56:29.728Z,23.90
2023-05-05T02:57:29.739Z,23.99
2023-05-05T02:58:29.797Z,23.57
2023-05-05T02:59:29.777Z,23.38
2023-05-05T03:00:29.801Z,21.86
2023-05-05T03:01:29.860Z,17.72
2023-05-05T03:02:29.844Z,14.56
2023-05-05T03:03:29.932Z,11.49
2023-05-05T03:04:29.801Z,9.32
2023-05-05T03:05:29.815Z,7.94
2023-05-05T03:06:29.821Z,6.97
2023-05-05T03:07:29.824Z,6.05
2023-05-05T03:08:29.840Z,5.20
2023-05-05T03:09:29.854Z,4.59
2023-05-05T03:10:29.861Z,4.01
2023-05-05T03:11:29.856Z,3.59
2023-05-05T03:12:29.891Z,3.08
2023-05-05T03:13:29.867Z,2.82
2023-05-05T03:14:32.776Z,2.57
2023-05-05T03:15:29.871Z,2.33
2023-05-05T03:16:29.891Z,2.15
2023-05-05T03:17:29.915Z,2.02
2023-05-05T03:18:29.895Z,1.88
2023-05-05T03:19:29.906Z,1.80
2023-05-05T03:20:29.918Z,1.69
2023-05-05T03:21:29.908Z,1.57
2023-05-05T03:22:29.913Z,1.50
2023-05-05T03:23:29.939Z,1.46
2023-05-05T03:24:29.935Z,1.36
2023-05-05T03:25:29.940Z,1.32
2023-05-05T03:26:29.944Z,1.29
2023-05-05T03:27:29.949Z,1.25
2023-05-05T03:28:29.970Z,1.23
2023-05-05T03:29:29.975Z,1.19
2023-05-05T03:30:29.964Z,1.15
2023-05-05T03:31:29.997Z,1.11
2023-05-05T03:32:29.996Z,1.13
2023-05-05T03:33:29.996Z,1.10
2023-05-05T03:34:30.011Z,1.09
2023-05-05T03:35:30.027Z,1.08
2023-05-05T03:36:30.028Z,1.03
2023-05-05T03:37:30.060Z,0.98
2023-05-05T03:38:30.061Z,0.94
2023-05-05T03:39:30.067Z,0.93
2023-05-05T03:40:42.922Z,0.89
2023-05-05T03:41:31.097Z,0.88
2023-05-05T03:42:30.104Z,0.89
2023-05-05T03:43:30.104Z,0.88
2023-05-05T03:44:30.111Z,0.89
2023-05-05T03:45:30.165Z,0.89
2023-05-05T03:46:30.159Z,0.89
2023-05-05T03:47:30.165Z,0.87
2023-05-05T03:48:30.162Z,0.86
2023-05-05T03:49:30.164Z,0.87
2023-05-05T03:50:30.185Z,0.86
2023-05-05T03:51:30.194Z,0.85
2023-05-05T03:52:30.196Z,0.85
2023-05-05T03:53:30.224Z,0.82
2023-05-05T03:54:30.218Z,0.81
2023-05-05T03:55:30.234Z,0.79
2023-05-05T03:56:30.309Z,0.78
2023-05-05T03:57:30.393Z,0.77
2023-05-05T03:58:30.471Z,0.77
2023-05-05T03:59:30.540Z,0.77
2023-05-05T04:00:30.613Z,0.77
2023-05-05T04:01:30.687Z,0.85
2023-05-05T04:02:30.839Z,0.86
2023-05-05T04:03:30.994Z,0.89
2023-05-05T04:04:30.913Z,0.93
2023-05-05T04:05:30.966Z,0.99
2023-05-05T04:06:31.054Z,1.06
2023-05-05T04:07:31.105Z,1.11
2023-05-05T04:08:31.188Z,1.16
2023-05-05T04:09:31.259Z,1.17
2023-05-05T04:10:31.346Z,1.20
2023-05-05T04:11:31.404Z,1.19
2023-05-05T04:12:31.483Z,1.23
2023-05-05T04:13:31.566Z,1.29
2023-05-05T04:14:31.629Z,1.39
2023-05-05T04:15:31.633Z,1.39
2023-05-05T04:16:31.668Z,1.40
2023-05-05T04:17:31.680Z,1.44
2023-05-05T04:18:31.667Z,1.48
2023-05-05T04:19:31.668Z,1.54
2023-05-05T04:20:31.705Z,1.54
2023-05-05T04:21:31.706Z,1.52
2023-05-05T04:22:31.708Z,1.49
2023-05-05T04:23:31.715Z,1.45
2023-05-05T04:24:31.713Z,1.43
2023-05-05T04:25:31.746Z,1.44
2023-05-05T04:26:31.806Z,1.43
2023-05-05T04:27:31.864Z,1.41
2023-05-05T04:28:31.917Z,1.39
2023-05-05T04:29:31.970Z,1.40
2023-05-05T04:30:32.014Z,1.32
2023-05-05T04:31:32.096Z,1.27
2023-05-05T04:32:32.067Z,1.23
2023-05-05T04:33:32.030Z,1.17
2023-05-05T04:34:32.036Z,1.14
2023-05-05T04:35:32.049Z,1.15
2023-05-05T04:36:32.052Z,1.12
2023-05-05T04:37:32.078Z,1.11
2023-05-05T04:38:32.125Z,1.15
2023-05-05T04:39:32.089Z,1.17
2023-05-05T04:40:32.097Z,1.17
2023-05-05T04:41:32.111Z,1.17
2023-05-05T04:42:32.125Z,1.17
2023-05-05T04:43:32.125Z,1.19
2023-05-05T04:44:32.132Z,1.24
2023-05-05T04:45:32.132Z,1.29
2023-05-05T04:46:32.173Z,1.29
2023-05-05T04:47:32.222Z,1.33
2023-05-05T04:48:32.171Z,1.30
2023-05-05T04:49:32.162Z,1.30
2023-05-05T04:50:32.182Z,1.28
2023-05-05T04:51:32.201Z,1.25
2023-05-05T04:52:32.218Z,1.29
2023-05-05T04:53:32.218Z,1.28
2023-05-05T04:54:32.246Z,1.24
2023-05-05T04:55:32.234Z,1.24
2023-05-05T04:56:32.250Z,1.21
2023-05-05T04:57:32.258Z,1.20
2023-05-05T04:58:32.262Z,1.16
2023-05-05T04:59:32.280Z,1.13
2023-05-05T05:00:32.281Z,1.13
2023-05-05T05:01:32.317Z,1.13
2023-05-05T05:02:32.378Z,1.13
2023-05-05T05:03:32.439Z,1.12
2023-05-05T05:04:32.330Z,1.11
2023-05-05T05:05:32.329Z,1.11
2023-05-05T05:06:32.333Z,1.37
2023-05-05T05:07:32.368Z,1.45
2023-05-05T05:08:32.346Z,1.63
2023-05-05T05:09:32.344Z,1.97
2023-05-05T05:10:32.382Z,2.20
2023-05-05T05:11:32.439Z,2.54
2023-05-05T05:12:32.519Z,2.92
2023-05-05T05:13:32.544Z,3.21
2023-05-05T05:14:32.580Z,3.49
2023-05-05T05:15:32.622Z,3.73
2023-05-05T05:16:32.687Z,4.01
2023-05-05T05:17:32.678Z,4.23
2023-05-05T05:18:32.705Z,4.51
2023-05-05T05:19:32.695Z,4.84
2023-05-05T05:20:32.708Z,4.85
2023-05-05T05:21:32.710Z,4.94
2023-05-05T05:22:32.714Z,5.14
2023-05-05T05:23:32.731Z,5.55
2023-05-05T05:24:32.724Z,6.16
2023-05-05T05:25:32.727Z,6.64
2023-05-05T05:26:32.741Z,6.73
2023-05-05T05:27:32.761Z,6.75
2023-05-05T05:28:32.766Z,6.86
2023-05-05T05:29:32.761Z,7.04
2023-05-05T05:30:32.749Z,7.59
2023-05-05T05:31:32.801Z,9.33
2023-05-05T05:32:32.816Z,6.84
2023-05-05T05:33:32.749Z,7.46
2023-05-05T05:34:32.759Z,8.97
2023-05-05T05:35:32.753Z,11.67
2023-05-05T05:36:32.767Z,15.75
2023-05-05T05:37:32.782Z,6.92
2023-05-05T05:38:32.762Z,7.58
2023-05-05T05:39:32.762Z,9.64
2023-05-05T05:40:32.907Z,14.94
2023-05-05T05:41:32.799Z,28.72
2023-05-05T05:42:32.796Z,36.34
2023-05-05T05:43:32.772Z,38.56
2023-05-05T05:44:32.797Z,40.39
2023-05-05T05:45:32.771Z,35.33
2023-05-05T05:46:32.812Z,26.84
2023-05-05T05:47:32.822Z,24.93
2023-05-05T05:48:32.812Z,17.39
2023-05-05T05:49:32.834Z,14.37
2023-05-05T05:50:32.817Z,12.44
2023-05-05T05:51:32.825Z,11.42
2023-05-05T05:52:32.835Z,10.14
2023-05-05T05:53:32.849Z,9.74
2023-05-05T05:54:32.892Z,11.41
2023-05-05T05:55:32.882Z,13.94
2023-05-05T05:56:33.005Z,14.42
2023-05-05T05:57:32.886Z,12.07
2023-05-05T05:58:32.852Z,12.22
2023-05-05T05:59:32.881Z,13.03
2023-05-05T06:00:32.869Z,14.50
2023-05-05T06:01:32.859Z,18.19
2023-05-05T06:02:32.957Z,25.15
2023-05-05T06:03:32.913Z,30.19
2023-05-05T06:04:32.923Z,31.49
2023-05-05T06:05:32.873Z,33.88
2023-05-05T06:06:32.889Z,34.27
2023-05-05T06:07:32.849Z,40.40
2023-05-05T06:08:32.843Z,45.73
2023-05-05T06:09:32.834Z,55.04
2023-05-05T06:10:33.227Z,65.41
2023-05-05T06:11:32.832Z,65.63
2023-05-05T06:12:32.888Z,66.31
2023-05-05T06:13:32.885Z,62.19
2023-05-05T06:14:32.837Z,69.38
2023-05-05T06:15:32.836Z,80.94
2023-05-05T06:16:32.986Z,87.19
2023-05-05T06:17:32.818Z,94.98
2023-05-05T06:18:32.822Z,95.07
2023-05-05T06:19:32.793Z,44.77
2023-05-05T06:20:32.801Z,37.93
2023-05-05T06:21:32.819Z,33.35
2023-05-05T06:22:32.831Z,24.80
2023-05-05T06:23:32.820Z,22.34
2023-05-05T06:24:32.805Z,20.90
2023-05-05T06:25:32.794Z,15.92
2023-05-05T06:26:32.799Z,13.25
2023-05-05T06:27:32.809Z,12.67
2023-05-05T06:28:32.807Z,12.88
2023-05-05T06:29:32.799Z,11.29
2023-05-05T06:30:32.852Z,13.23
2023-05-05T06:31:32.852Z,10.64
2023-05-05T06:32:32.845Z,9.40
2023-05-05T06:33:32.845Z,8.82
2023-05-05T06:34:32.810Z,7.47
2023-05-05T06:35:32.806Z,6.05
2023-05-05T06:36:32.889Z,5.66
2023-05-05T06:37:32.814Z,6.17
2023-05-05T06:38:32.845Z,5.57
2023-05-05T06:39:32.841Z,8.21
2023-05-05T06:40:32.869Z,8.24
2023-05-05T06:41:32.846Z,8.65
2023-05-05T06:42:32.853Z,7.39
2023-05-05T06:43:32.873Z,5.76
2023-05-05T06:44:32.848Z,5.89
2023-05-05T06:45:32.859Z,7.59
2023-05-05T06:46:32.863Z,5.71
2023-05-05T06:47:32.907Z,5.48
2023-05-05T06:48:32.901Z,5.14
2023-05-05T06:49:32.870Z,5.78
2023-05-05T06:50:32.881Z,5.10
2023-05-05T06:51:32.902Z,5.15
2023-05-05T06:52:32.868Z,5.79
2023-05-05T06:53:32.910Z,4.43
2023-05-05T06:54:32.890Z,3.21
2023-05-05T06:55:33.043Z,2.89
2023-05-05T06:56:32.909Z,2.37
2023-05-05T06:57:32.916Z,2.03
2023-05-05T06:58:32.934Z,1.45
2023-05-05T06:59:32.935Z,1.49
2023-05-05T07:00:33.001Z,1.48
2023-05-05T07:01:32.954Z,1.25
2023-05-05T07:02:32.977Z,1.21
2023-05-05T07:03:33.010Z,1.13
2023-05-05T07:04:32.979Z,1.12
2023-05-05T07:05:32.992Z,1.07
2023-05-05T07:06:33.015Z,0.92
2023-05-05T07:07:33.012Z,0.97
2023-05-05T07:08:33.015Z,1.14
2023-05-05T07:09:33.025Z,1.21
2023-05-05T07:10:33.041Z,1.30
2023-05-05T07:11:33.180Z,1.30
2023-05-05T07:12:33.095Z,1.32
2023-05-05T07:13:33.078Z,1.31
2023-05-05T07:14:33.079Z,1.31
2023-05-05T07:15:33.100Z,1.36
2023-05-05T07:16:33.222Z,1.09
2023-05-05T07:17:33.130Z,0.93
2023-05-05T07:18:33.223Z,0.85
2023-05-05T07:19:33.131Z,0.83
2023-05-05T07:20:33.148Z,0.88
2023-05-05T07:21:33.132Z,1.01
2023-05-05T07:22:33.138Z,1.02
2023-05-05T07:23:33.177Z,1.01
2023-05-05T07:24:33.175Z,1.05
2023-05-05T07:25:33.155Z,1.08
2023-05-05T07:26:33.184Z,1.02
2023-05-05T07:27:33.268Z,0.91
2023-05-05T07:28:33.192Z,0.91
2023-05-05T07:29:33.198Z,0.80
2023-05-05T07:30:33.209Z,0.81
2023-05-05T07:31:33.228Z,0.92
2023-05-05T07:32:33.215Z,0.84
2023-05-05T07:33:33.202Z,0.83
2023-05-05T07:34:33.220Z,0.81
2023-05-05T07:35:33.220Z,0.66
2023-05-05T07:36:33.226Z,0.63
2023-05-05T07:37:33.222Z,0.65
2023-05-05T07:38:33.230Z,0.59
2023-05-05T07:39:33.244Z,0.52
2023-05-05T07:40:33.245Z,0.75
2023-05-05T07:41:33.243Z,0.89
2023-05-05T07:42:33.273Z,0.91
2023-05-05T07:43:33.317Z,0.62
2023-05-05T07:44:33.304Z,0.48
2023-05-05T07:45:33.369Z,0.44
2023-05-05T07:46:33.528Z,0.52
2023-05-05T07:47:33.612Z,0.43
2023-05-05T07:48:40.479Z,0.48
2023-05-05T07:49:33.592Z,0.47
2023-05-05T07:50:33.604Z,0.49
2023-05-05T07:51:34.589Z,0.41
2023-05-05T07:52:44.969Z,0.36
2023-05-05T07:53:34.562Z,0.34
2023-05-05T07:54:33.687Z,0.34
2023-05-05T07:55:33.558Z,0.34
2023-05-05T07:56:33.567Z,0.34
2023-05-05T07:57:33.639Z,0.35
2023-05-05T07:58:33.579Z,0.43
2023-05-05T07:59:33.692Z,0.37
2023-05-05T08:00:33.580Z,0.37
2023-05-05T08:01:33.605Z,0.36
2023-05-05T08:02:33.679Z,0.38
2023-05-05T08:03:33.876Z,0.36
2023-05-05T08:04:33.675Z,0.37
2023-05-05T08:05:33.622Z,0.34
2023-05-05T08:06:33.576Z,0.34
2023-05-05T08:07:33.603Z,0.34
2023-05-05T08:08:33.601Z,0.34
2023-05-05T08:09:33.592Z,0.34
2023-05-05T08:10:33.654Z,0.34
2023-05-05T08:11:33.620Z,0.51
2023-05-05T08:12:33.747Z,0.54
2023-05-05T08:13:33.680Z,0.58
2023-05-05T08:14:33.608Z,0.47
2023-05-05T08:15:33.672Z,0.49
2023-05-05T08:16:33.790Z,0.39
2023-05-05T08:17:33.752Z,0.38
2023-05-05T08:18:33.624Z,0.38
2023-05-05T08:19:33.599Z,0.37
2023-05-05T08:20:33.655Z,0.36
2023-05-05T08:21:33.601Z,0.35
2023-05-05T08:22:33.688Z,0.36
2023-05-05T08:23:33.632Z,0.50
2023-05-05T08:24:33.649Z,0.65
2023-05-05T08:25:33.637Z,0.94
2023-05-05T08:26:33.643Z,1.17
2023-05-05T08:27:33.650Z,1.17
2023-05-05T08:28:33.658Z,1.32
2023-05-05T08:29:33.667Z,1.40
2023-05-05T08:30:33.689Z,1.71
2023-05-05T08:31:33.779Z,1.77
2023-05-05T08:32:33.761Z,1.61
2023-05-05T08:33:33.683Z,2.55
2023-05-05T08:34:33.690Z,4.26
2023-05-05T08:35:33.713Z,5.84
2023-05-05T08:36:33.756Z,2.23
2023-05-05T08:37:33.772Z,1.66
2023-05-05T08:38:33.805Z,1.67
2023-05-05T08:39:33.873Z,2.29
2023-05-05T08:40:33.959Z,2.60
2023-05-05T08:41:34.034Z,1.78
2023-05-05T08:42:38.600Z,1.44
2023-05-05T08:43:34.026Z,1.46
2023-05-05T08:44:34.060Z,1.60
2023-05-05T08:45:34.015Z,2.09
2023-05-05T08:46:34.105Z,1.48
2023-05-05T08:47:34.167Z,1.56
2023-05-05T08:48:33.992Z,1.73
2023-05-05T08:49:34.034Z,1.92
2023-05-05T08:50:33.983Z,1.68
2023-05-05T08:51:34.039Z,1.28
2023-05-05T08:52:34.054Z,1.09
2023-05-05T08:53:33.963Z,0.76
2023-05-05T08:54:33.996Z,0.57
2023-05-05T08:55:33.984Z,0.70
2023-05-05T08:56:34.005Z,0.79
2023-05-05T08:57:33.994Z,0.58
2023-05-05T08:58:33.961Z,0.44
2023-05-05T08:59:33.990Z,0.49
2023-05-05T09:00:34.011Z,0.67
2023-05-05T09:01:34.127Z,0.44
2023-05-05T09:02:34.102Z,0.41
2023-05-05T09:03:34.101Z,0.45
2023-05-05T09:04:34.007Z,0.47
2023-05-05T09:05:33.896Z,0.51
2023-05-05T09:06:33.971Z,0.62
2023-05-05T09:07:33.886Z,0.53
2023-05-05T09:08:33.905Z,0.53
2023-05-05T09:09:34.133Z,0.51
2023-05-05T09:10:34.120Z,0.50
2023-05-05T09:11:34.264Z,0.53
2023-05-05T09:12:34.180Z,0.48
2023-05-05T09:13:34.207Z,0.52
2023-05-05T09:14:34.266Z,0.83
2023-05-05T09:15:34.300Z,0.85
2023-05-05T09:16:34.360Z,0.87
2023-05-05T09:17:34.395Z,0.77
2023-05-05T09:18:34.411Z,0.50
2023-05-05T09:19:34.607Z,0.49
2023-05-05T09:20:34.532Z,0.50
2023-05-05T09:21:34.590Z,0.55
2023-05-05T09:22:34.662Z,0.60
2023-05-05T09:23:34.726Z,0.55
2023-05-05T09:24:34.806Z,0.60
2023-05-05T09:25:34.888Z,0.84
2023-05-05T09:26:34.938Z,0.79
2023-05-05T09:27:35.011Z,0.63
2023-05-05T09:28:35.077Z,0.64
2023-05-05T09:29:35.127Z,0.73
2023-05-05T09:30:35.111Z,0.70
2023-05-05T09:31:35.113Z,0.56
2023-05-05T09:32:35.120Z,0.52
2023-05-05T09:33:35.120Z,0.90
2023-05-05T09:34:35.168Z,1.16
2023-05-05T09:35:35.182Z,1.24
2023-05-05T09:36:35.130Z,0.92
2023-05-05T09:37:35.149Z,0.84
2023-05-05T09:38:35.147Z,0.62
2023-05-05T09:39:35.128Z,0.48
2023-05-05T09:40:35.130Z,0.48
2023-05-05T09:41:35.133Z,0.48
2023-05-05T09:42:35.141Z,0.49
2023-05-05T09:43:35.190Z,0.58
2023-05-05T09:44:35.132Z,0.78
2023-05-05T09:45:35.149Z,0.73
2023-05-05T09:46:35.134Z,1.01
2023-05-05T09:47:35.302Z,1.18
2023-05-05T09:49:35.127Z,1.37
2023-05-05T09:50:35.121Z,1.66
2023-05-05T09:51:35.220Z,1.77
2023-05-05T09:52:35.118Z,1.99
2023-05-05T09:53:35.125Z,2.69
2023-05-05T09:54:35.151Z,3.98
2023-05-05T09:55:35.158Z,4.54
2023-05-05T09:56:35.161Z,4.74
2023-05-05T09:57:35.158Z,7.05
2023-05-05T09:58:35.192Z,14.85
2023-05-05T09:59:35.195Z,27.59
2023-05-05T10:00:35.210Z,50.24
2023-05-05T10:01:35.359Z,80.44
2023-05-05T10:02:35.388Z,119.03
2023-05-05T10:03:35.338Z,120.63
2023-05-05T10:04:35.360Z,130.05
2023-05-05T10:05:35.331Z,122.67
2023-05-05T10:06:35.377Z,140.45
2023-05-05T10:07:35.322Z,188.30
2023-05-05T10:08:35.315Z,314.87
2023-05-05T10:09:35.338Z,663.41
2023-05-05T10:10:35.314Z,828.45
2023-05-05T10:11:35.318Z,903.50
2023-05-05T10:12:35.308Z,1000.00
2023-05-05T10:13:35.289Z,1000.00
2023-05-05T10:14:35.254Z,1000.00
2023-05-05T10:15:35.281Z,1000.00
2023-05-05T10:16:35.286Z,1000.00
2023-05-05T10:17:35.240Z,1000.00
2023-05-05T10:18:35.263Z,1000.00
2023-05-05T10:19:35.201Z,1000.00
2023-05-05T10:20:35.164Z,1000.00
2023-05-05T10:21:35.161Z,1000.00
2023-05-05T10:22:35.161Z,1000.00
2023-05-05T10:23:35.197Z,1000.00
2023-05-05T10:24:35.134Z,1000.00
2023-05-05T10:25:35.139Z,1000.00
2023-05-05T10:26:35.124Z,930.51
2023-05-05T10:27:35.104Z,857.60
2023-05-05T10:28:35.118Z,837.07
2023-05-05T10:29:35.106Z,1000.00
2023-05-05T10:30:35.099Z,306.70
2023-05-05T10:31:35.112Z,145.36
2023-05-05T10:33:36.117Z,97.40
2023-05-05T10:34:35.135Z,108.82
2023-05-05T10:35:35.054Z,118.02
2023-05-05T10:36:35.062Z,44.29
2023-05-05T10:37:35.026Z,38.43
2023-05-05T10:38:35.049Z,71.18
2023-05-05T10:39:35.099Z,130.65
2023-05-05T10:40:35.101Z,235.38
2023-05-05T10:41:35.099Z,327.99
2023-05-05T10:42:35.135Z,468.18
2023-05-05T10:43:35.133Z,633.66
2023-05-05T10:44:35.137Z,764.75
2023-05-05T10:45:35.340Z,753.64
2023-05-05T10:46:35.386Z,624.47
2023-05-05T10:47:35.220Z,596.23
2023-05-05T10:48:35.254Z,161.84
2023-05-05T10:49:35.250Z,119.96
2023-05-05T10:50:35.232Z,33.90
2023-05-05T10:51:40.093Z,34.88
2023-05-05T10:52:36.255Z,35.62
2023-05-05T10:53:35.366Z,37.88
2023-05-05T10:54:37.156Z,25.12
2023-05-05T10:55:35.391Z,15.52
2023-05-05T10:56:35.250Z,14.31
2023-05-05T10:57:35.257Z,15.50
2023-05-05T10:58:47.122Z,19.46
2023-05-05T10:59:36.196Z,19.60
2023-05-05T11:00:35.163Z,21.49
2023-05-05T11:01:35.328Z,30.43
2023-05-05T11:02:35.210Z,53.15
2023-05-05T11:03:35.138Z,53.72
2023-05-05T11:04:35.086Z,34.56
2023-05-05T11:05:35.073Z,31.97
2023-05-05T11:06:35.055Z,45.02
2023-05-05T11:07:35.051Z,50.78
2023-05-05T11:08:35.025Z,29.29
2023-05-05T11:09:35.017Z,26.50
2023-05-05T11:10:35.006Z,29.62
2023-05-05T11:11:35.099Z,31.25
2023-05-05T11:12:36.114Z,36.79
2023-05-05T11:13:34.956Z,29.60
2023-05-05T11:14:34.932Z,29.66
2023-05-05T11:15:34.932Z,29.94
2023-05-05T11:16:34.977Z,30.91
2023-05-05T11:17:34.909Z,31.72
2023-05-05T11:18:34.865Z,24.82
2023-05-05T11:19:34.872Z,13.43
2023-05-05T11:20:34.834Z,9.75
2023-05-05T11:21:34.819Z,7.33
2023-05-05T11:22:34.797Z,6.17
2023-05-05T11:23:34.776Z,5.56
2023-05-05T11:24:34.763Z,4.34
2023-05-05T11:25:34.803Z,3.39
2023-05-05T11:26:34.703Z,3.35
2023-05-05T11:27:34.762Z,3.24
2023-05-05T11:28:34.676Z,2.86
2023-05-05T11:29:34.677Z,2.29
2023-05-05T11:30:34.646Z,2.05
2023-05-05T11:31:34.758Z,1.93
2023-05-05T11:32:34.681Z,1.83
2023-05-05T11:33:34.609Z,1.63
2023-05-05T11:34:34.598Z,1.57
2023-05-05T11:35:34.577Z,1.55
2023-05-05T11:36:34.558Z,1.55
2023-05-05T11:37:34.559Z,1.59
2023-05-05T11:38:34.547Z,1.73
2023-05-05T11:39:34.516Z,1.94
2023-05-05T11:40:34.492Z,1.56
2023-05-05T11:41:34.462Z,1.66
2023-05-05T11:42:34.464Z,1.84
2023-05-05T11:43:34.513Z,2.28
2023-05-05T11:44:34.421Z,3.59
2023-05-05T11:45:34.423Z,3.99
2023-05-05T11:46:34.403Z,3.91
2023-05-05T11:47:34.427Z,3.92
2023-05-05T11:48:34.434Z,3.66
2023-05-05T11:49:34.469Z,3.19
2023-05-05T11:50:34.539Z,3.17
2023-05-05T11:51:34.537Z,2.58
2023-05-05T11:52:34.597Z,2.47
2023-05-05T11:53:34.579Z,2.34
2023-05-05T11:54:34.540Z,2.50
2023-05-05T11:55:34.553Z,2.64
2023-05-05T11:56:34.505Z,2.97
2023-05-05T11:57:34.486Z,3.82
2023-05-05T11:58:34.479Z,4.38
2023-05-05T11:59:34.521Z,4.69
2023-05-05T12:00:34.467Z,5.38
2023-05-05T12:01:34.465Z,6.45
2023-05-05T12:02:34.505Z,6.49
2023-05-05T12:03:34.533Z,6.70
2023-05-05T12:04:34.478Z,7.23
2023-05-05T12:05:36.729Z,7.82
2023-05-05T12:06:34.406Z,7.87
2023-05-05T12:07:34.414Z,9.02
2023-05-05T12:08:34.375Z,10.67
2023-05-05T12:09:34.370Z,11.70
2023-05-05T12:10:34.347Z,10.65
2023-05-05T12:11:34.325Z,9.62
2023-05-05T12:12:34.341Z,12.73
2023-05-05T12:13:34.278Z,12.44
2023-05-05T12:14:34.322Z,12.75
2023-05-05T12:15:34.324Z,11.94
2023-05-05T12:16:34.252Z,11.74
2023-05-05T12:17:34.234Z,13.10
2023-05-05T12:18:34.208Z,12.24
2023-05-05T12:19:34.189Z,9.36
2023-05-05T12:20:34.184Z,7.28
2023-05-05T12:21:34.153Z,6.81
2023-05-05T12:22:34.125Z,7.17
2023-05-05T12:23:34.117Z,7.55
2023-05-05T12:24:34.086Z,6.91
2023-05-05T12:25:34.085Z,5.67
2023-05-05T12:26:34.050Z,5.36
2023-05-05T12:27:34.056Z,5.12
2023-05-05T12:28:34.021Z,5.14
2023-05-05T12:29:34.003Z,5.32
2023-05-05T12:30:34.044Z,5.82
2023-05-05T12:31:34.163Z,6.35
2023-05-05T12:32:33.997Z,6.58
2023-05-05T12:33:33.935Z,7.72
2023-05-05T12:34:33.911Z,7.00
2023-05-05T12:35:33.913Z,5.83
2023-05-05T12:36:33.863Z,5.96
2023-05-05T12:37:33.849Z,5.29
2023-05-05T12:38:33.842Z,4.77
2023-05-05T12:39:33.854Z,5.03
2023-05-05T12:40:33.879Z,6.00
2023-05-05T12:41:33.878Z,5.72
2023-05-05T12:42:33.890Z,5.29
2023-05-05T12:43:33.920Z,6.09
2023-05-05T12:44:33.966Z,5.28
2023-05-05T12:45:33.959Z,5.14
2023-05-05T12:46:34.087Z,5.16
2023-05-05T12:47:34.029Z,5.26
2023-05-05T12:48:33.924Z,5.39
2023-05-05T12:49:33.898Z,5.46
2023-05-05T12:50:33.896Z,6.24
2023-05-05T12:51:33.896Z,7.32
2023-05-05T12:52:33.879Z,7.24
2023-05-05T12:53:33.867Z,7.15
2023-05-05T12:54:33.875Z,7.80
2023-05-05T12:55:33.836Z,7.20
2023-05-05T12:56:33.808Z,6.97
2023-05-05T12:57:33.805Z,5.89
2023-05-05T12:58:33.775Z,4.41
2023-05-05T12:59:33.779Z,3.75
2023-05-05T13:00:33.745Z,3.32
2023-05-05T13:01:33.771Z,3.19
2023-05-05T13:02:33.755Z,3.25
2023-05-05T13:03:33.868Z,3.16
2023-05-05T13:04:33.792Z,3.57